Time;durP1;ratioP1;P1;durP2;ratioP2;P2;SDS_P1;SDS_P2;PMS_P1;PMS_P2;Temp;Humidity;BMP_temperature;BMP_pressure;BME280_temperature;BME280_humidity;BME280_pressure;Samples;Min_cycle;Max_cycle;Signal;HPM_P1;HPM_P2
2023/03/29 00:01:48;;;;;;;8.50;3.90;;;5.50;99.90;;;;;;5104442;27;20046;-67
2023/03/29 00:04:18;;;;;;;7.22;3.80;;;5.40;99.90;;;;;;5110089;27;20035;-67
2023/03/29 00:06:47;;;;;;;5.55;3.42;;;5.50;99.90;;;;;;5103774;27;20043;-67
2023/03/29 00:09:17;;;;;;;6.50;3.53;;;5.50;99.90;;;;;;5105296;27;20446;-67
2023/03/29 00:11:43;;;;;;;6.97;3.80;;;5.40;99.90;;;;;;5106823;27;20075;-67
2023/03/29 00:14:09;;;;;;;6.75;3.25;;;5.40;99.90;;;;;;5107690;27;20519;-67
2023/03/29 00:16:35;;;;;;;6.13;3.45;;;5.40;99.90;;;;;;5103087;27;20035;-67
2023/03/29 00:19:01;;;;;;;8.77;3.40;;;5.40;99.90;;;;;;5106229;27;20050;-67
2023/03/29 00:21:26;;;;;;;5.28;3.30;;;5.40;99.90;;;;;;5105434;27;20042;-66
2023/03/29 00:23:52;;;;;;;6.35;3.40;;;5.40;99.90;;;;;;5106572;27;20043;-68
2023/03/29 00:26:17;;;;;;;7.85;3.45;;;5.40;99.90;;;;;;5100998;27;20039;-67
2023/03/29 00:28:43;;;;;;;8.60;3.72;;;5.40;99.90;;;;;;5102115;27;20043;-67
2023/03/29 00:31:12;;;;;;;6.50;3.67;;;5.40;99.90;;;;;;5104505;27;20047;-67
2023/03/29 00:33:38;;;;;;;5.80;3.40;;;5.40;99.90;;;;;;5104357;27;20114;-67
2023/03/29 00:36:05;;;;;;;5.65;3.30;;;5.40;99.90;;;;;;5104933;27;20088;-67
2023/03/29 00:38:32;;;;;;;6.82;3.85;;;5.40;99.90;;;;;;5104490;27;20485;-67
2023/03/29 00:40:58;;;;;;;6.22;3.45;;;5.40;99.90;;;;;;5104744;27;20088;-67
2023/03/29 00:43:23;;;;;;;6.30;3.47;;;5.40;99.90;;;;;;5108085;27;20043;-67
2023/03/29 00:45:49;;;;;;;6.88;3.70;;;5.40;99.90;;;;;;5103128;27;20430;-67
2023/03/29 00:48:19;;;;;;;7.90;3.95;;;5.40;99.90;;;;;;5106806;27;20114;-67
2023/03/29 00:50:58;;;;;;;7.88;4.20;;;5.40;99.90;;;;;;5104724;27;20486;-68
2023/03/29 00:53:53;;;;;;;5.20;3.67;;;5.30;99.90;;;;;;5097792;27;20043;-68
2023/03/29 00:56:23;;;;;;;7.43;4.28;;;5.40;99.90;;;;;;5088905;27;20051;-67
2023/03/29 00:59:01;;;;;;;9.10;4.45;;;5.30;99.90;;;;;;5101751;27;20041;-67
2023/03/29 01:01:36;;;;;;;7.32;4.32;;;5.40;99.90;;;;;;5107883;27;20035;-67
2023/03/29 01:04:18;;;;;;;7.20;4.35;;;5.40;99.90;;;;;;5106194;27;20122;-67
2023/03/29 01:07:17;;;;;;;6.88;4.38;;;5.40;99.90;;;;;;5122638;27;20118;-67
2023/03/29 01:09:49;;;;;;;7.22;4.60;;;5.40;99.90;;;;;;5098766;27;20052;-67
2023/03/29 01:12:23;;;;;;;10.45;5.10;;;5.40;99.90;;;;;;5104404;27;20042;-67
2023/03/29 01:14:57;;;;;;;11.73;5.07;;;5.40;99.90;;;;;;5107587;27;20504;-68
2023/03/29 01:17:24;;;;;;;8.75;4.93;;;5.40;99.90;;;;;;5099453;27;20375;-67
2023/03/29 01:20:12;;;;;;;9.18;5.00;;;5.40;99.90;;;;;;5105958;27;20036;-67
2023/03/29 01:22:53;;;;;;;9.60;5.10;;;5.40;99.90;;;;;;5102099;27;20051;-67
2023/03/29 01:25:33;;;;;;;9.13;5.18;;;5.40;99.90;;;;;;5102928;27;20039;-67
2023/03/29 01:28:11;;;;;;;6.80;4.80;;;5.40;99.90;;;;;;5102487;27;20035;-67
2023/03/29 01:30:50;;;;;;;7.20;4.70;;;5.40;99.90;;;;;;5106353;27;20039;-68
2023/03/29 01:33:48;;;;;;;8.93;5.00;;;5.40;99.90;;;;;;5105195;27;20059;-67
2023/03/29 01:36:20;;;;;;;8.30;4.85;;;5.40;99.90;;;;;;5107359;27;20074;-66
2023/03/29 01:39:05;;;;;;;9.85;5.00;;;5.40;99.90;;;;;;5100926;27;20067;-67
2023/03/29 01:42:14;;;;;;;8.65;5.28;;;5.40;99.90;;;;;;5104801;27;20405;-67
2023/03/29 01:45:23;;;;;;;9.25;4.93;;;5.40;99.90;;;;;;5103769;27;20055;-67
2023/03/29 01:47:59;;;;;;;10.00;5.03;;;5.40;99.90;;;;;;5089887;28;20396;-67
2023/03/29 01:50:33;;;;;;;9.07;4.90;;;5.40;99.90;;;;;;5103361;27;20043;-67
2023/03/29 01:53:05;;;;;;;8.95;5.25;;;5.40;99.90;;;;;;5122285;27;20039;-67
2023/03/29 01:55:34;;;;;;;7.63;5.15;;;5.40;99.90;;;;;;5107472;28;20533;-67
2023/03/29 01:58:02;;;;;;;9.60;5.05;;;5.40;99.90;;;;;;5102819;28;20042;-67
2023/03/29 02:00:29;;;;;;;12.55;5.47;;;5.40;99.90;;;;;;5104352;27;20047;-67
2023/03/29 02:03:01;;;;;;;8.68;5.05;;;5.40;99.90;;;;;;5104018;28;20038;-68
2023/03/29 02:05:30;;;;;;;8.10;5.03;;;5.40;99.90;;;;;;5102953;28;20039;-68
2023/03/29 02:07:58;;;;;;;9.00;4.78;;;5.50;99.90;;;;;;5104302;28;20542;-67
2023/03/29 02:10:25;;;;;;;9.13;4.85;;;5.40;99.90;;;;;;5102729;28;20126;-67
2023/03/29 02:12:51;;;;;;;9.82;5.22;;;5.40;99.90;;;;;;5105244;28;20126;-67
2023/03/29 02:15:19;;;;;;;9.15;5.60;;;5.50;99.90;;;;;;5103971;28;20118;-67
2023/03/29 02:17:46;;;;;;;8.65;5.13;;;5.40;99.90;;;;;;5104119;27;20035;-67
2023/03/29 02:20:25;;;;;;;9.85;5.40;;;5.50;99.90;;;;;;5105483;27;20047;-67
2023/03/29 02:23:03;;;;;;;8.98;5.10;;;5.50;99.90;;;;;;5106555;28;20047;-67
2023/03/29 02:25:29;;;;;;;8.60;4.88;;;5.50;99.90;;;;;;5103200;28;20073;-67
2023/03/29 02:27:55;;;;;;;9.60;5.10;;;5.50;99.90;;;;;;5122027;27;20035;-67
2023/03/29 02:30:23;;;;;;;9.07;5.10;;;5.50;99.90;;;;;;5103196;28;20032;-67
2023/03/29 02:32:58;;;;;;;9.13;5.20;;;5.50;99.90;;;;;;5103932;28;20043;-67
2023/03/29 02:35:33;;;;;;;10.38;5.35;;;5.50;99.90;;;;;;5103533;27;20521;-66
2023/03/29 02:38:02;;;;;;;10.20;5.13;;;5.50;99.90;;;;;;5098491;28;20043;-67
2023/03/29 02:40:29;;;;;;;7.70;5.07;;;5.50;99.90;;;;;;5105867;28;20460;-68
2023/03/29 02:42:56;;;;;;;8.93;5.05;;;5.50;99.90;;;;;;5103672;28;20096;-67
2023/03/29 02:45:24;;;;;;;10.13;5.03;;;5.50;99.90;;;;;;5107937;27;20397;-67
2023/03/29 02:47:54;;;;;;;8.25;5.18;;;5.50;99.90;;;;;;5107217;27;20051;-67
2023/03/29 02:50:21;;;;;;;9.73;5.30;;;5.50;99.90;;;;;;5107072;27;20428;-67
2023/03/29 02:52:53;;;;;;;8.15;5.35;;;5.50;99.90;;;;;;5103302;27;20374;-68
2023/03/29 02:55:23;;;;;;;8.57;5.03;;;5.50;99.90;;;;;;5104731;27;20152;-67
2023/03/29 02:57:48;;;;;;;11.35;6.25;;;5.50;99.90;;;;;;5105029;27;20127;-67
2023/03/29 03:00:18;;;;;;;10.65;5.32;;;5.50;99.90;;;;;;5129491;27;20174;-67
2023/03/29 03:02:45;;;;;;;9.80;5.63;;;5.50;99.90;;;;;;5108538;27;20133;-67
2023/03/29 03:05:11;;;;;;;11.80;5.35;;;5.50;99.90;;;;;;5110746;27;20043;-68
2023/03/29 03:07:39;;;;;;;10.93;5.40;;;5.50;99.90;;;;;;5102161;27;20047;-67
2023/03/29 03:10:07;;;;;;;11.88;6.53;;;5.50;99.90;;;;;;5105984;27;20043;-67
2023/03/29 03:12:32;;;;;;;9.70;5.90;;;5.50;99.90;;;;;;5109670;27;20047;-67
2023/03/29 03:14:58;;;;;;;12.23;5.93;;;5.60;99.90;;;;;;5125697;27;20034;-67
2023/03/29 03:17:24;;;;;;;9.00;5.57;;;5.60;99.90;;;;;;5105665;27;20059;-67
2023/03/29 03:19:49;;;;;;;10.13;5.75;;;5.60;99.90;;;;;;5103200;27;20046;-68
2023/03/29 03:22:15;;;;;;;11.50;6.03;;;5.50;99.90;;;;;;5105240;27;20098;-67
2023/03/29 03:24:40;;;;;;;12.43;6.20;;;5.60;99.90;;;;;;5102727;27;20612;-67
2023/03/29 03:27:07;;;;;;;9.77;6.18;;;5.60;99.90;;;;;;5103501;27;20071;-67
2023/03/29 03:29:34;;;;;;;10.60;6.28;;;5.60;99.90;;;;;;5108725;27;20046;-67
2023/03/29 03:31:59;;;;;;;12.95;6.20;;;5.60;99.90;;;;;;5108424;27;20035;-67
2023/03/29 03:34:26;;;;;;;10.68;6.45;;;5.60;99.90;;;;;;5124773;27;20036;-67
2023/03/29 03:36:54;;;;;;;10.00;5.85;;;5.60;99.90;;;;;;5108483;27;20157;-68
2023/03/29 03:39:20;;;;;;;11.77;5.80;;;5.60;99.90;;;;;;5106855;27;20039;-67
2023/03/29 03:41:45;;;;;;;13.27;6.47;;;5.60;99.90;;;;;;5105192;27;20043;-67
2023/03/29 03:44:12;;;;;;;11.20;5.95;;;5.60;99.90;;;;;;5107327;27;20038;-67
2023/03/29 03:46:37;;;;;;;10.55;5.47;;;5.60;99.90;;;;;;5102029;27;20270;-67
2023/03/29 03:49:03;;;;;;;10.02;5.88;;;5.60;99.90;;;;;;5109632;27;20043;-67
2023/03/29 03:51:29;;;;;;;10.38;6.40;;;5.60;99.90;;;;;;5104162;27;20040;-67
2023/03/29 03:53:54;;;;;;;12.63;6.32;;;5.60;99.90;;;;;;5107304;27;20505;-67
2023/03/29 03:56:20;;;;;;;10.30;6.30;;;5.60;99.90;;;;;;5100456;27;20054;-67
2023/03/29 03:58:46;;;;;;;14.48;6.45;;;5.60;99.90;;;;;;5101832;27;20176;-67
2023/03/29 04:01:12;;;;;;;9.98;6.22;;;5.60;99.90;;;;;;5099206;27;20042;-67
2023/03/29 04:03:37;;;;;;;9.63;5.85;;;5.60;99.90;;;;;;5104407;27;20041;-67
2023/03/29 04:06:04;;;;;;;11.63;6.35;;;5.70;99.90;;;;;;5103712;27;20042;-67
2023/03/29 04:08:30;;;;;;;12.82;6.68;;;5.60;99.90;;;;;;5108922;27;20031;-67
2023/03/29 04:10:57;;;;;;;10.52;5.97;;;5.70;99.90;;;;;;5103477;27;20035;-67
2023/03/29 04:13:23;;;;;;;11.52;6.38;;;5.70;99.90;;;;;;5104790;27;20092;-67
2023/03/29 04:15:52;;;;;;;11.05;6.50;;;5.70;99.90;;;;;;5104113;27;20164;-67
2023/03/29 04:18:19;;;;;;;9.75;6.43;;;5.70;99.90;;;;;;5102206;27;20118;-67
2023/03/29 04:20:46;;;;;;;11.88;6.32;;;5.70;99.90;;;;;;5101378;27;20039;-67
2023/03/29 04:23:12;;;;;;;11.73;6.22;;;5.70;99.90;;;;;;5099706;27;20087;-67
2023/03/29 04:25:38;;;;;;;9.15;6.10;;;5.70;99.90;;;;;;5104603;27;20066;-67
2023/03/29 04:28:04;;;;;;;11.02;6.32;;;5.70;99.90;;;;;;5100870;27;20156;-67
2023/03/29 04:30:29;;;;;;;12.32;6.25;;;5.70;99.90;;;;;;5102815;27;20076;-67
2023/03/29 04:32:55;;;;;;;9.98;6.30;;;5.80;99.90;;;;;;5101281;27;20078;-68
2023/03/29 04:35:21;;;;;;;10.82;6.35;;;5.70;99.90;;;;;;5124150;27;20031;-67
2023/03/29 04:37:47;;;;;;;10.63;6.03;;;5.70;99.90;;;;;;5101002;27;20127;-67
2023/03/29 04:40:13;;;;;;;11.45;6.50;;;5.80;99.90;;;;;;5100781;27;20065;-67
2023/03/29 04:42:43;;;;;;;11.52;6.15;;;5.80;99.90;;;;;;5100154;27;20235;-67
2023/03/29 04:45:09;;;;;;;9.20;6.20;;;5.80;99.90;;;;;;5103378;27;20073;-67
2023/03/29 04:47:38;;;;;;;14.70;6.57;;;5.80;99.90;;;;;;5105851;27;20079;-67
2023/03/29 04:50:05;;;;;;;12.35;6.47;;;5.80;99.90;;;;;;5102753;27;20045;-67
2023/03/29 04:52:32;;;;;;;12.40;6.47;;;5.80;99.90;;;;;;5102770;27;20047;-67
2023/03/29 04:54:59;;;;;;;12.10;6.50;;;5.80;99.90;;;;;;5098526;27;20405;-67
2023/03/29 04:57:24;;;;;;;10.40;6.43;;;5.80;99.90;;;;;;5101038;27;20382;-67
2023/03/29 04:59:50;;;;;;;11.25;6.28;;;5.80;99.90;;;;;;5101224;27;20035;-67
2023/03/29 05:02:16;;;;;;;12.57;6.60;;;5.80;99.90;;;;;;5101837;27;20047;-67
2023/03/29 05:04:41;;;;;;;11.85;6.90;;;5.80;99.90;;;;;;5104348;27;20312;-66
2023/03/29 05:07:07;;;;;;;11.98;6.90;;;5.80;99.90;;;;;;5101807;27;20052;-67
2023/03/29 05:09:34;;;;;;;11.75;6.95;;;5.80;99.90;;;;;;5103225;27;20078;-68
2023/03/29 05:12:00;;;;;;;12.55;6.50;;;5.80;99.90;;;;;;5103180;27;20104;-67
2023/03/29 05:14:25;;;;;;;10.02;6.22;;;5.80;99.90;;;;;;5107070;27;20031;-67
2023/03/29 05:16:51;;;;;;;13.25;6.80;;;5.80;99.90;;;;;;5098323;27;20035;-67
2023/03/29 05:19:16;;;;;;;11.52;7.15;;;5.80;99.90;;;;;;5118206;27;20035;-67
2023/03/29 05:21:43;;;;;;;13.10;6.85;;;5.80;99.90;;;;;;5099113;27;20529;-67
2023/03/29 05:24:08;;;;;;;12.02;7.30;;;5.80;99.90;;;;;;5101184;27;20267;-66
2023/03/29 05:26:34;;;;;;;12.32;7.57;;;5.80;99.90;;;;;;5118538;27;20049;-67
2023/03/29 05:28:59;;;;;;;11.77;6.90;;;5.80;99.90;;;;;;5096624;27;20038;-67
2023/03/29 05:31:25;;;;;;;12.90;7.30;;;5.80;99.90;;;;;;5102414;27;20080;-67
2023/03/29 05:33:51;;;;;;;14.05;7.80;;;5.80;99.90;;;;;;5104182;27;20413;-67
2023/03/29 05:36:18;;;;;;;11.25;7.22;;;5.80;99.90;;;;;;5099386;27;20053;-67
2023/03/29 05:38:45;;;;;;;11.88;7.32;;;5.90;99.90;;;;;;5100405;27;20031;-67
2023/03/29 05:41:11;;;;;;;12.23;7.10;;;5.90;99.90;;;;;;5099645;27;20043;-67
2023/03/29 05:43:37;;;;;;;12.85;7.78;;;5.90;99.90;;;;;;5104342;27;20027;-67
2023/03/29 05:46:02;;;;;;;12.38;7.72;;;5.90;99.90;;;;;;5107770;27;20058;-67
2023/03/29 05:48:28;;;;;;;12.60;7.72;;;5.90;99.90;;;;;;5104837;27;20386;-67
2023/03/29 05:50:55;;;;;;;16.45;7.90;;;5.90;99.90;;;;;;5108215;27;20406;-67
2023/03/29 05:53:22;;;;;;;14.80;8.63;;;5.90;99.90;;;;;;5105105;27;20031;-67
2023/03/29 05:55:48;;;;;;;14.13;7.30;;;5.90;99.90;;;;;;5107952;27;20027;-67
2023/03/29 05:58:16;;;;;;;16.88;8.73;;;5.90;99.90;;;;;;5102214;28;20124;-67
2023/03/29 06:00:43;;;;;;;15.30;7.90;;;6.00;99.90;;;;;;5101687;27;20035;-67
2023/03/29 06:03:26;;;;;;;12.02;7.80;;;6.00;99.90;;;;;;5098262;28;20043;-67
2023/03/29 06:05:56;;;;;;;;;;;6.00;99.90;;;;;;5099847;28;20054;-67
2023/03/29 06:08:22;;;;;;;16.55;8.20;;;6.10;99.90;;;;;;5098312;28;19915;-67
2023/03/29 06:10:47;;;;;;;11.75;7.55;;;6.10;99.90;;;;;;5099839;28;20702;-67
2023/03/29 06:13:13;;;;;;;13.10;8.32;;;6.10;99.90;;;;;;5098162;28;20363;-67
2023/03/29 06:15:39;;;;;;;12.07;7.78;;;6.20;99.90;;;;;;5101721;28;20117;-67
2023/03/29 06:18:05;;;;;;;15.30;8.93;;;6.20;99.90;;;;;;5098509;27;20039;-66
2023/03/29 06:20:31;;;;;;;14.57;8.73;;;6.30;99.90;;;;;;5101983;27;20529;-67
2023/03/29 06:22:57;;;;;;;11.57;7.90;;;6.30;99.90;;;;;;5109546;27;20115;-67
2023/03/29 06:25:23;;;;;;;14.18;7.63;;;6.30;99.90;;;;;;5112633;27;20040;-67
2023/03/29 06:27:50;;;;;;;16.77;8.35;;;6.40;99.90;;;;;;5109883;27;20043;-67
2023/03/29 06:30:17;;;;;;;15.68;8.23;;;6.30;99.90;;;;;;5109608;27;20058;-67
2023/03/29 06:32:43;;;;;;;14.55;7.97;;;6.40;99.90;;;;;;5107787;27;20562;-67
2023/03/29 06:35:09;;;;;;;14.32;8.23;;;6.40;99.90;;;;;;5108963;27;20031;-67
2023/03/29 06:37:37;;;;;;;15.63;8.38;;;6.40;99.90;;;;;;5105793;27;20024;-67
2023/03/29 06:40:06;;;;;;;13.25;8.15;;;6.50;99.90;;;;;;5111398;27;20041;-67
2023/03/29 06:42:32;;;;;;;14.73;7.93;;;6.50;99.90;;;;;;5109219;27;20039;-67
2023/03/29 06:44:58;;;;;;;14.80;8.75;;;6.50;99.90;;;;;;5109572;27;20035;-67
2023/03/29 06:47:29;;;;;;;12.13;7.65;;;6.50;99.90;;;;;;5110299;27;20035;-67
2023/03/29 06:49:55;;;;;;;11.98;7.80;;;6.60;99.90;;;;;;5112170;27;20482;-67
2023/03/29 06:52:21;;;;;;;13.00;8.68;;;6.60;99.90;;;;;;5110983;27;20050;-68
2023/03/29 06:54:46;;;;;;;12.25;7.60;;;6.60;99.90;;;;;;5113218;27;20035;-67
2023/03/29 06:57:12;;;;;;;13.35;7.97;;;6.70;99.90;;;;;;5114276;27;20451;-67
2023/03/29 06:59:38;;;;;;;14.52;8.52;;;6.70;99.90;;;;;;5110389;27;20480;-67
2023/03/29 07:02:03;;;;;;;15.48;7.90;;;6.70;99.90;;;;;;5106979;27;20038;-67
2023/03/29 07:04:31;;;;;;;14.25;8.00;;;6.80;99.90;;;;;;5115693;27;20036;-68
2023/03/29 07:07:03;;;;;;;17.55;8.13;;;6.80;99.90;;;;;;5097857;27;20077;-68
2023/03/29 07:09:29;;;;;;;13.15;8.07;;;6.80;99.90;;;;;;5102358;27;20031;-67
2023/03/29 07:11:57;;;;;;;14.60;8.10;;;6.80;99.90;;;;;;5110081;27;20397;-67
2023/03/29 07:14:28;;;;;;;12.82;7.47;;;6.90;99.90;;;;;;5106244;27;20035;-68
2023/03/29 07:16:55;;;;;;;16.65;8.00;;;6.90;99.90;;;;;;5108924;27;20362;-67
2023/03/29 07:19:23;;;;;;;14.35;7.88;;;7.00;99.90;;;;;;5103763;27;20512;-68
2023/03/29 07:21:49;;;;;;;11.70;7.28;;;7.00;99.90;;;;;;5110116;27;20339;-67
2023/03/29 07:24:14;;;;;;;13.48;7.50;;;7.10;99.90;;;;;;5109016;27;20270;-67
2023/03/29 07:26:40;;;;;;;13.40;7.10;;;7.20;99.90;;;;;;5110009;27;20049;-68
2023/03/29 07:29:06;;;;;;;14.23;7.43;;;7.20;99.90;;;;;;5110690;27;20537;-67
2023/03/29 07:31:34;;;;;;;13.35;7.43;;;7.20;99.90;;;;;;5110080;27;20043;-69
2023/03/29 07:34:02;;;;;;;11.95;7.00;;;7.20;99.90;;;;;;5110774;27;20122;-67
2023/03/29 07:36:27;;;;;;;14.27;7.30;;;7.30;99.90;;;;;;5108506;27;20047;-68
2023/03/29 07:38:55;;;;;;;10.82;7.45;;;7.30;99.90;;;;;;5110850;27;20126;-67
2023/03/29 07:41:21;;;;;;;10.32;7.18;;;7.40;99.90;;;;;;5110840;27;20044;-68
2023/03/29 07:43:47;;;;;;;14.68;7.53;;;7.40;99.90;;;;;;5112845;27;20577;-68
2023/03/29 07:46:12;;;;;;;13.85;7.32;;;7.40;99.90;;;;;;5112619;27;20042;-67
2023/03/29 07:48:38;;;;;;;11.90;7.30;;;7.50;99.90;;;;;;5110693;27;20088;-67
2023/03/29 07:51:05;;;;;;;13.05;7.15;;;7.50;99.90;;;;;;5111671;27;20039;-68
2023/03/29 07:53:31;;;;;;;14.60;7.90;;;7.60;99.90;;;;;;5111667;27;20055;-68
2023/03/29 07:55:56;;;;;;;13.38;7.22;;;7.70;99.90;;;;;;5115249;27;20589;-68
2023/03/29 07:58:22;;;;;;;11.32;7.38;;;7.70;99.90;;;;;;5104381;27;20073;-68
2023/03/29 08:00:48;;;;;;;13.27;7.05;;;7.70;99.90;;;;;;5114326;27;20035;-67
2023/03/29 08:03:13;;;;;;;12.20;7.13;;;7.80;99.90;;;;;;5110691;28;20051;-67
2023/03/29 08:05:39;;;;;;;12.30;6.88;;;7.90;99.90;;;;;;5123239;27;20035;-68
2023/03/29 08:08:05;;;;;;;13.32;7.25;;;7.90;99.90;;;;;;5126136;27;20084;-68
2023/03/29 08:10:33;;;;;;;12.20;7.50;;;8.00;99.90;;;;;;5107598;27;20074;-67
2023/03/29 08:12:59;;;;;;;10.05;6.85;;;8.10;99.90;;;;;;5096363;27;20039;-68
2023/03/29 08:15:26;;;;;;;12.18;7.43;;;8.10;99.90;;;;;;5127051;27;20125;-68
2023/03/29 08:17:52;;;;;;;12.43;7.57;;;8.20;99.90;;;;;;5126410;27;20452;-68
2023/03/29 08:20:18;;;;;;;13.52;7.15;;;8.30;99.90;;;;;;5112071;27;20122;-67
2023/03/29 08:22:43;;;;;;;13.02;7.30;;;8.40;99.90;;;;;;5108949;27;20038;-67
2023/03/29 08:25:10;;;;;;;10.95;6.60;;;8.40;99.90;;;;;;5113009;27;20089;-67
2023/03/29 08:27:36;;;;;;;12.73;7.57;;;8.50;99.90;;;;;;5110179;27;20098;-67
2023/03/29 08:30:04;;;;;;;12.20;7.05;;;8.50;99.90;;;;;;5088251;28;20036;-67
2023/03/29 08:32:30;;;;;;;12.32;7.22;;;8.60;99.90;;;;;;5103633;27;20042;-67
2023/03/29 08:34:56;;;;;;;12.95;6.88;;;8.60;99.90;;;;;;5113022;27;20047;-67
2023/03/29 08:37:23;;;;;;;12.90;7.25;;;8.60;99.90;;;;;;5110619;27;20042;-68
2023/03/29 08:39:49;;;;;;;12.80;7.28;;;8.60;99.90;;;;;;5111840;27;20038;-68
2023/03/29 08:42:32;;;;;;;10.60;7.20;;;8.70;99.90;;;;;;5111691;27;20500;-67
2023/03/29 08:45:00;;;;;;;11.82;6.25;;;8.70;99.90;;;;;;5103861;27;20066;-67
2023/03/29 08:47:42;;;;;;;12.23;7.13;;;8.80;99.90;;;;;;5109224;27;20110;-67
2023/03/29 08:50:09;;;;;;;11.57;6.63;;;8.90;99.90;;;;;;5111352;27;20039;-67
2023/03/29 08:52:39;;;;;;;13.00;7.53;;;9.00;99.90;;;;;;5109158;27;20493;-67
2023/03/29 08:55:22;;;;;;;14.40;7.20;;;9.00;99.90;;;;;;5105260;27;20040;-68
2023/03/29 08:57:50;;;;;;;14.88;7.03;;;9.10;99.90;;;;;;5096294;27;20356;-68
2023/03/29 09:00:32;;;;;;;10.82;7.10;;;9.20;99.90;;;;;;5130011;27;20537;-68
2023/03/29 09:03:01;;;;;;;11.82;7.20;;;9.30;99.90;;;;;;5110922;27;20516;-68
2023/03/29 09:05:32;;;;;;;11.20;7.68;;;9.30;99.90;;;;;;5113579;27;20374;-68
2023/03/29 09:07:58;;;;;;;12.60;6.95;;;9.30;99.90;;;;;;5112332;27;20092;-67
2023/03/29 09:10:33;;;;;;;14.40;7.03;;;9.40;99.90;;;;;;5112929;27;20120;-68
2023/03/29 09:13:15;;;;;;;12.73;7.45;;;9.50;99.90;;;;;;5109076;27;20038;-68
2023/03/29 09:15:51;;;;;;;12.30;7.22;;;9.50;99.90;;;;;;5113765;27;20043;-68
2023/03/29 09:18:39;;;;;;;11.80;7.70;;;9.60;99.90;;;;;;5092116;27;20035;-67
2023/03/29 09:21:13;;;;;;;10.88;7.15;;;9.70;99.90;;;;;;5109147;27;20547;-67
2023/03/29 09:24:02;;;;;;;12.32;7.28;;;9.80;99.90;;;;;;5109166;27;20066;-68
2023/03/29 09:26:31;;;;;;;13.15;7.68;;;9.90;99.90;;;;;;5110091;27;20398;-68
2023/03/29 09:29:24;;;;;;;12.02;7.55;;;9.90;99.90;;;;;;5097781;27;20520;-68
2023/03/29 09:31:50;;;;;;;;;;;10.00;99.90;;;;;;5106469;27;20042;-68
2023/03/29 09:34:42;;;;;;;14.15;7.53;;;10.10;99.90;;;;;;5104423;27;19919;-67
2023/03/29 09:37:46;;;;;;;13.70;7.63;;;10.20;99.90;;;;;;5108995;27;20122;-67
2023/03/29 09:40:21;;;;;;;12.00;7.88;;;10.20;99.90;;;;;;5046938;28;20050;-68
2023/03/29 09:42:48;;;;;;;14.73;8.13;;;10.30;99.90;;;;;;5093029;27;20043;-67
2023/03/29 09:45:14;;;;;;;14.15;8.25;;;10.30;99.90;;;;;;5101050;27;20394;-68
2023/03/29 09:47:56;;;;;;;15.18;8.63;;;10.30;99.90;;;;;;5111540;27;20047;-68
2023/03/29 09:50:32;;;;;;;16.63;8.80;;;10.40;99.90;;;;;;5106173;27;20051;-67
2023/03/29 09:52:58;;;;;;;13.50;8.57;;;10.40;99.90;;;;;;5111365;27;20048;-66
2023/03/29 09:55:32;;;;;;;16.02;9.38;;;10.40;99.90;;;;;;5106576;27;20034;-68
2023/03/29 09:58:00;;;;;;;15.65;9.07;;;10.30;99.90;;;;;;5109794;28;20039;-67
2023/03/29 10:00:26;;;;;;;14.98;9.07;;;10.30;99.90;;;;;;5110597;28;20118;-67
2023/03/29 10:02:55;;;;;;;17.35;9.55;;;10.40;99.90;;;;;;5107212;27;20119;-68
2023/03/29 10:05:24;;;;;;;16.58;10.32;;;10.50;99.90;;;;;;5092410;28;20400;-67
2023/03/29 10:07:52;;;;;;;15.02;10.27;;;10.40;99.90;;;;;;5093415;27;20079;-68
2023/03/29 10:10:22;;;;;;;17.38;10.27;;;10.50;99.90;;;;;;5102776;28;20062;-67
2023/03/29 10:13:05;;;;;;;16.50;10.65;;;10.60;99.90;;;;;;5110614;27;20051;-67
2023/03/29 10:15:32;;;;;;;17.10;10.27;;;10.80;99.90;;;;;;5099814;28;20041;-67
2023/03/29 10:17:59;;;;;;;15.70;10.55;;;11.00;99.90;;;;;;5093085;27;20066;-67
2023/03/29 10:20:26;;;;;;;20.83;11.18;;;11.10;99.90;;;;;;5096939;28;20075;-68
2023/03/29 10:22:57;;;;;;;18.02;10.25;;;11.40;99.90;;;;;;5110814;27;20461;-67
2023/03/29 10:25:31;;;;;;;18.20;11.02;;;11.60;99.90;;;;;;5112588;28;20500;-68
2023/03/29 10:28:21;;;;;;;16.40;9.48;;;11.80;99.90;;;;;;5094843;27;20393;-68
2023/03/29 10:30:54;;;;;;;17.00;9.30;;;12.00;99.90;;;;;;5111633;27;20107;-68
2023/03/29 10:33:23;;;;;;;15.38;9.80;;;12.20;99.90;;;;;;5109514;28;20500;-68
2023/03/29 10:35:49;;;;;;;16.08;8.93;;;12.30;99.90;;;;;;5108728;28;20061;-68
2023/03/29 10:38:21;;;;;;;12.98;8.85;;;12.30;99.90;;;;;;5105569;27;20027;-68
2023/03/29 10:40:50;;;;;;;13.20;8.80;;;12.40;99.90;;;;;;5110023;28;20047;-69
2023/03/29 10:43:15;;;;;;;13.02;8.93;;;12.40;99.90;;;;;;5102049;28;20035;-68
2023/03/29 10:45:42;;;;;;;15.60;8.68;;;12.40;99.90;;;;;;5112698;28;20118;-68
2023/03/29 10:48:13;;;;;;;15.98;9.50;;;12.60;99.90;;;;;;5100664;27;20389;-68
2023/03/29 10:50:39;;;;;;;13.57;8.95;;;12.70;99.90;;;;;;5119563;27;20035;-67
2023/03/29 10:53:14;;;;;;;12.27;9.02;;;12.70;99.90;;;;;;5105319;27;20047;-67
2023/03/29 10:55:50;;;;;;;15.18;8.95;;;12.60;99.90;;;;;;5110575;28;20040;-68
2023/03/29 10:58:23;;;;;;;15.52;9.70;;;12.70;99.90;;;;;;5094200;27;20061;-67
2023/03/29 11:00:55;;;;;;;13.50;8.57;;;12.50;99.90;;;;;;5103356;28;20076;-68
2023/03/29 11:03:40;;;;;;;;;;;12.50;99.90;;;;;;5095196;27;20066;-68
2023/03/29 11:06:17;;;;;;;12.27;8.32;;;12.60;99.90;;;;;;5105397;28;19927;-68
2023/03/29 11:08:51;;;;;;;13.52;9.27;;;12.70;99.90;;;;;;5096975;27;20526;-68
2023/03/29 11:11:39;;;;;;;13.07;8.70;;;12.60;99.90;;;;;;5100760;27;20134;-68
2023/03/29 11:14:08;;;;;;;14.15;8.82;;;12.80;99.90;;;;;;5117570;27;20489;-68
2023/03/29 11:17:01;;;;;;;17.45;8.82;;;12.90;99.90;;;;;;5112588;27;20165;-68
2023/03/29 11:19:50;;;;;;;16.20;8.50;;;13.00;99.90;;;;;;5084045;27;20557;-68
2023/03/29 11:22:24;;;;;;;15.52;8.40;;;13.00;99.90;;;;;;5115709;27;20482;-68
2023/03/29 11:25:19;;;;;;;13.80;8.60;;;13.20;99.90;;;;;;5107464;27;20048;-67
2023/03/29 11:27:52;;;;;;;13.23;8.70;;;13.30;99.90;;;;;;5111720;27;20176;-68
2023/03/29 11:30:17;;;;;;;13.98;9.10;;;13.30;99.90;;;;;;5106431;27;20047;-68
2023/03/29 11:33:01;;;;;;;13.20;8.57;;;13.20;99.90;;;;;;5107880;27;20080;-67
2023/03/29 11:35:41;;;;;;;12.80;8.52;;;13.20;99.90;;;;;;5111851;27;20067;-68
2023/03/29 11:38:32;;;;;;;13.10;8.48;;;13.30;99.90;;;;;;5105562;27;20047;-68
2023/03/29 11:41:28;;;;;;;12.77;9.10;;;13.50;99.90;;;;;;5109680;27;20043;-68
2023/03/29 11:44:08;;;;;;;14.27;8.93;;;13.50;99.90;;;;;;5104049;27;20055;-69
2023/03/29 11:46:48;;;;;;;13.23;9.45;;;13.60;99.90;;;;;;5109962;27;20402;-67
2023/03/29 11:49:22;;;;;;;13.70;8.82;;;13.60;99.90;;;;;;5127879;27;20035;-69
2023/03/29 11:52:15;;;;;;;12.82;9.05;;;13.70;99.90;;;;;;5113427;27;20058;-68
2023/03/29 11:55:17;;;;;;;13.45;8.27;;;13.80;99.90;;;;;;5111949;27;20087;-69
2023/03/29 11:57:55;;;;;;;15.60;8.70;;;14.00;99.90;;;;;;5114479;27;20490;-69
2023/03/29 12:00:28;;;;;;;14.20;8.60;;;14.00;99.90;;;;;;5112744;27;20296;-69
2023/03/29 12:03:01;;;;;;;10.15;8.15;;;14.10;99.90;;;;;;5115341;27;20047;-68
2023/03/29 12:05:38;;;;;;;14.20;8.82;;;14.20;99.90;;;;;;5113541;27;20063;-70
2023/03/29 12:08:09;;;;;;;13.18;8.65;;;14.20;99.90;;;;;;5110012;27;20390;-69
2023/03/29 12:10:36;;;;;;;14.70;8.93;;;14.20;99.90;;;;;;5099782;27;20526;-69
2023/03/29 12:13:20;;;;;;;15.45;9.57;;;14.20;99.90;;;;;;5106492;27;20084;-68
2023/03/29 12:16:01;;;;;;;14.57;9.32;;;14.00;99.90;;;;;;5094708;28;20060;-69
2023/03/29 12:18:32;;;;;;;13.55;9.20;;;14.00;99.90;;;;;;5094498;27;20488;-68
2023/03/29 12:21:00;;;;;;;16.33;9.25;;;14.10;99.90;;;;;;5113959;27;20481;-68
2023/03/29 12:23:30;;;;;;;15.15;9.57;;;14.20;99.90;;;;;;5109739;27;20039;-69
2023/03/29 12:26:29;;;;;;;14.40;9.48;;;14.30;99.90;;;;;;5101752;28;20501;-69
2023/03/29 12:29:10;;;;;;;12.88;9.27;;;14.50;99.90;;;;;;5093760;27;20043;-69
2023/03/29 12:31:41;;;;;;;14.13;9.43;;;14.70;99.90;;;;;;5113877;27;20114;-69
2023/03/29 12:34:29;;;;;;;14.75;9.80;;;14.80;99.90;;;;;;5107927;28;20048;-69
2023/03/29 12:37:08;;;;;;;14.50;9.93;;;15.00;99.90;;;;;;5093261;28;20036;-68
2023/03/29 12:39:35;;;;;;;19.23;10.35;;;15.00;99.90;;;;;;5093371;27;20036;-68
2023/03/29 12:42:21;;;;;;;14.00;9.82;;;15.00;99.90;;;;;;5093428;28;20047;-68
2023/03/29 12:44:57;;;;;;;15.70;10.35;;;14.80;99.90;;;;;;5110620;27;20047;-69
2023/03/29 12:47:26;;;;;;;13.68;9.60;;;14.80;99.90;;;;;;5093010;28;20043;-68
2023/03/29 12:49:57;;;;;;;13.98;9.70;;;14.90;99.90;;;;;;5104116;27;20497;-69
2023/03/29 12:52:34;;;;;;;15.70;9.93;;;15.00;99.90;;;;;;5112259;27;20042;-68
2023/03/29 12:55:19;;;;;;;16.52;10.30;;;15.10;99.90;;;;;;5099766;27;20047;-69
2023/03/29 12:58:00;;;;;;;15.50;10.00;;;15.20;99.90;;;;;;5108579;27;21244;-68
2023/03/29 13:00:41;;;;;;;14.75;10.13;;;15.30;99.90;;;;;;5092641;27;20360;-68
2023/03/29 13:03:22;;;;;;;15.77;10.50;;;15.50;99.90;;;;;;5093292;28;20052;-68
2023/03/29 13:05:58;;;;;;;13.90;9.65;;;15.70;99.90;;;;;;5109711;27;20516;-69
2023/03/29 13:08:43;;;;;;;14.13;9.90;;;15.80;99.90;;;;;;5095504;27;20035;-68